Nearby METAR Reports

On this page are routine METAR weather reports submitted by Bureau of Meteorology Airport observation sites in and surrounding South East Queensland.

Reports are usually updated hourly. Note on small screens you wil need drag or scroll to the righ to view reports that are out of view.

 

YBBN - Brisbane Intl Ar, Australia
Distance from station: E 20km
Updated: Tue, 18-Jun-2024 1:30pm AEST
Clear
Clear
 Wind from SSW
Wind: SSW 17 km/h
Temperature: 20°C
Dew Point: 6°C
Humidity: 40%
Barometer: 1014 hPa
Summary: Clear
Visibility: greater than 10 km
2024/06/18 03:30 YBBN 180330Z 21009KT CAVOK 20/06 Q1014
YAMB - Amberley, Australia
Distance from station: SW 33km
Updated: Tue, 18-Jun-2024 1:30pm AEST
Clear
Clear
 Wind from WNW
Wind: WNW 24 km/h
Temperature: 21°C
Dew Point: 6°C
Humidity: 38%
Barometer: 1013 hPa
Summary: Clear
Visibility: greater than 10 km
2024/06/18 03:30 YAMB 180330Z 29013KT CAVOK 21/06 Q1013
YBSU - Sunshine Coast, Australia
Distance from station: N 90km
Updated: Tue, 18-Jun-2024 1:30pm AEST
Clear
Clear
 Wind from SW
Wind: SW 15 km/h
Temperature: 21°C
Dew Point: 7°C
Humidity: 40%
Barometer: 1014 hPa
Clouds: Clear
Visibility: 10 km
2024/06/18 03:30 YBSU 180330Z AUTO 23008KT 9999 // NCD 21/07 Q1014 RF00.0/000.0
 
YBCG - Coolangatta Aws, Australia
Distance from station: SSE 102km
Updated: Tue, 18-Jun-2024 1:30pm AEST
Clear
Clear
 Wind from SW
Wind: SW 7 km/h
Temperature: 21°C
Dew Point: 7°C
Humidity: 40%
Barometer: 1013 hPa
Clouds: Clear
Visibility: 10 km
2024/06/18 03:30 YBCG 180330Z AUTO 23004KT 180V300 9999 // NCD 21/07 Q1013 RF00.0/000.0
YBWW - Toowoomba, Australia
Distance from station: W 113km
Updated: Tue, 18-Jun-2024 1:30pm AEST
Clear
Clear
 Wind from W
Wind: W 22 km/h
Temperature: 17°C
Dew Point: 2°C
Humidity: 37%
Barometer: 1015 hPa
Clouds: Clear
Visibility: 10 km
2024/06/18 03:30 YBWW 180330Z AUTO 26012KT 9999 // NCD 17/02 Q1015 RF00.0/000.0
YCFS - Coffs Harbour, Australia
Distance from station: S 325km
Updated: Tue, 18-Jun-2024 1:30pm AEST
Clear
Clear
 Wind from SW
Wind: SW 20 km/h
Temperature: 19°C
Dew Point: 6°C
Humidity: 43%
Barometer: 1013 hPa
Clouds: Clear
Visibility: 10 km
2024/06/18 03:30 YCFS 180330Z AUTO 22011KT 9999 // NCD 19/06 Q1013 RF00.0/000.0
 
YGLA - Gladstone, Australia
Distance from station: NNW 429km
Updated: Tue, 18-Jun-2024 1:30pm AEST
Clear
Clear
 Wind from SSW
Wind: SSW 6 km/h
Temperature: 21°C
Dew Point: 2°C
Humidity: 29%
Barometer: 1015 hPa
Clouds: Clear
Visibility: 10 km
2024/06/18 03:30 YGLA 180330Z AUTO 20003KT 9999 // NCD 21/02 Q1015 RF00.0/000.0
YSTW - Tamworth Airport, Australia
Distance from station: SSW 456km
Updated: Tue, 18-Jun-2024 1:30pm AEST
Clear
Clear
 Wind from N
Wind: N 7 km/h
Temperature: 14°C
Dew Point: 7°C
Humidity: 63%
Barometer: 1016 hPa
Clouds: Clear
Visibility: 10 km
2024/06/18 03:30 YSTW 180330Z AUTO 35004KT 270V050 9999 // NCD 14/07 Q1016 RF00.0/000.0

Metar display script from Saratoga-Weather.org